createdAt,value
2019-05-26T00:02:25.070Z,17.13
2019-05-26T00:04:54.601Z,19.53
2019-05-26T00:07:30.724Z,21.20
2019-05-26T00:09:53.927Z,25.17
2019-05-26T00:12:22.679Z,17.37
2019-05-26T00:14:51.462Z,24.67
2019-05-26T00:17:20.275Z,20.20
2019-05-26T00:19:49.129Z,18.37
2019-05-26T00:22:18.042Z,24.40
2019-05-26T00:24:46.829Z,25.67
2019-05-26T00:27:15.708Z,22.57
2019-05-26T00:29:44.537Z,20.43
2019-05-26T00:32:13.379Z,23.47
2019-05-26T00:34:42.191Z,24.40
2019-05-26T00:37:10.962Z,25.83
2019-05-26T00:39:39.587Z,19.37
2019-05-26T00:42:08.409Z,24.90
2019-05-26T00:44:37.121Z,17.23
2019-05-26T00:47:06.029Z,18.33
2019-05-26T00:49:35.110Z,18.77
2019-05-26T00:52:04.003Z,22.97
2019-05-26T00:54:32.841Z,24.23
2019-05-26T00:57:01.847Z,24.67
2019-05-26T00:59:30.702Z,22.63
2019-05-26T01:01:59.516Z,20.57
2019-05-26T01:04:28.356Z,23.53
2019-05-26T01:06:57.211Z,25.93
2019-05-26T01:09:26.086Z,23.93
2019-05-26T01:11:54.966Z,25.70
2019-05-26T01:14:23.706Z,21.70
2019-05-26T01:16:55.715Z,28.93
2019-05-26T01:19:22.970Z,17.00
2019-05-26T01:21:51.873Z,30.50
2019-05-26T01:24:20.613Z,21.00
2019-05-26T01:26:49.456Z,18.83
2019-05-26T01:29:21.721Z,25.23
2019-05-26T01:31:50.619Z,23.13
2019-05-26T01:34:19.599Z,22.90
2019-05-26T01:36:49.241Z,19.47
2019-05-26T01:39:18.287Z,27.57
2019-05-26T01:41:51.491Z,19.90
2019-05-26T01:44:20.343Z,18.17
2019-05-26T01:46:49.255Z,21.53
2019-05-26T01:49:18.073Z,26.30
2019-05-26T01:51:46.810Z,18.80
2019-05-26T01:54:15.704Z,24.80
2019-05-26T01:56:44.336Z,22.10
2019-05-26T01:59:13.114Z,20.03
2019-05-26T02:01:47.165Z,16.23
2019-05-26T02:04:17.569Z,16.37
2019-05-26T02:06:46.426Z,17.23
2019-05-26T02:09:15.200Z,23.97
2019-05-26T02:11:44.713Z,21.30
2019-05-26T02:14:18.932Z,17.90
2019-05-26T02:16:48.623Z,15.73
2019-05-26T02:19:17.643Z,16.73
2019-05-26T02:21:46.450Z,18.57
2019-05-26T02:24:15.232Z,22.07
2019-05-26T02:26:44.019Z,26.20
2019-05-26T02:29:12.821Z,20.77
2019-05-26T02:31:41.766Z,18.57
2019-05-26T02:34:10.993Z,17.57
2019-05-26T02:36:39.857Z,17.10
2019-05-26T02:39:11.191Z,15.60
2019-05-26T02:41:39.931Z,16.63
2019-05-26T02:44:09.048Z,16.40
2019-05-26T02:46:37.881Z,15.77
2019-05-26T02:49:06.602Z,22.47
2019-05-26T02:51:35.355Z,17.30
2019-05-26T02:54:04.566Z,13.93
2019-05-26T02:56:33.656Z,17.00
2019-05-26T02:59:02.374Z,16.30
2019-05-26T03:01:32.202Z,14.73
2019-05-26T03:04:01.332Z,26.13
2019-05-26T03:06:31.235Z,15.83
2019-05-26T03:09:21.191Z,14.03
2019-05-26T03:11:35.076Z,18.27
2019-05-26T03:14:04.983Z,20.90
2019-05-26T03:16:36.551Z,24.13
2019-05-26T03:19:05.541Z,20.63
2019-05-26T03:21:35.338Z,18.17
2019-05-26T03:24:05.057Z,22.47
2019-05-26T03:26:33.945Z,16.27
2019-05-26T03:29:02.767Z,15.93
2019-05-26T03:31:31.696Z,16.23
2019-05-26T03:34:00.549Z,14.73
2019-05-26T03:36:29.331Z,17.57
2019-05-26T03:38:58.076Z,16.47
2019-05-26T03:41:26.906Z,16.90
2019-05-26T03:43:55.693Z,16.00
2019-05-26T03:46:24.432Z,20.90
2019-05-26T03:48:53.275Z,25.40
2019-05-26T03:51:21.995Z,21.37
2019-05-26T03:53:50.801Z,15.97
2019-05-26T03:56:19.598Z,19.40
2019-05-26T03:58:48.486Z,17.50
2019-05-26T04:01:17.175Z,20.00
2019-05-26T04:03:46.114Z,22.73
2019-05-26T04:06:14.975Z,15.67
2019-05-26T04:08:43.789Z,17.00
2019-05-26T04:11:12.514Z,24.03
2019-05-26T04:13:41.320Z,19.77
2019-05-26T04:16:10.110Z,16.87
2019-05-26T04:18:38.943Z,22.13
2019-05-26T04:21:07.820Z,18.33
2019-05-26T04:23:36.626Z,15.90
2019-05-26T04:26:05.368Z,29.93
2019-05-26T04:28:34.193Z,18.60
2019-05-26T04:31:03.071Z,16.53
2019-05-26T04:33:31.907Z,18.37
2019-05-26T04:36:00.745Z,18.53
2019-05-26T04:38:29.512Z,18.73
2019-05-26T04:40:58.401Z,16.90
2019-05-26T04:43:27.187Z,18.43
2019-05-26T04:45:56.060Z,25.40
2019-05-26T04:48:24.850Z,17.80
2019-05-26T04:50:53.500Z,20.13
2019-05-26T04:53:22.312Z,25.53
2019-05-26T04:55:51.033Z,25.70
2019-05-26T04:58:19.821Z,26.40
2019-05-26T05:00:48.565Z,24.67
2019-05-26T05:03:17.375Z,29.27
2019-05-26T05:05:46.161Z,21.33
2019-05-26T05:08:14.977Z,26.43
2019-05-26T05:10:43.742Z,23.07
2019-05-26T05:13:12.542Z,32.67
2019-05-26T05:15:41.446Z,24.93
2019-05-26T05:18:10.144Z,26.13
2019-05-26T05:20:39.138Z,29.77
2019-05-26T05:23:07.907Z,25.03
2019-05-26T05:25:36.671Z,32.80
2019-05-26T05:28:05.474Z,26.50
2019-05-26T05:30:34.362Z,31.13
2019-05-26T05:33:03.075Z,32.90
2019-05-26T05:35:31.821Z,27.63
2019-05-26T05:38:00.549Z,35.10
2019-05-26T05:40:29.644Z,29.23
2019-05-26T05:42:58.387Z,31.20
2019-05-26T05:45:27.233Z,29.03
2019-05-26T05:47:55.890Z,29.63
2019-05-26T05:50:24.661Z,34.23
2019-05-26T05:52:53.597Z,27.03
2019-05-26T05:55:22.354Z,29.73
2019-05-26T05:58:05.584Z,36.23
2019-05-26T06:00:34.361Z,31.73
2019-05-26T06:03:03.119Z,29.97
2019-05-26T06:05:32.149Z,32.00
2019-05-26T06:08:00.900Z,31.27
2019-05-26T06:10:29.745Z,30.37
2019-05-26T06:12:58.408Z,35.20
2019-05-26T06:15:27.124Z,30.17
2019-05-26T06:17:55.743Z,31.40
2019-05-26T06:20:24.730Z,31.93
2019-05-26T06:22:53.424Z,33.23
2019-05-26T06:25:22.377Z,33.67
2019-05-26T06:27:52.253Z,28.87
2019-05-26T06:30:21.748Z,31.93
2019-05-26T06:32:50.529Z,34.67
2019-05-26T06:35:19.730Z,30.57
2019-05-26T06:37:48.600Z,34.40
2019-05-26T06:40:17.783Z,34.93
2019-05-26T06:42:46.557Z,31.83
2019-05-26T06:45:16.013Z,31.83
2019-05-26T06:47:45.025Z,31.00
2019-05-26T06:50:14.604Z,27.37
2019-05-26T06:52:43.395Z,30.90
2019-05-26T06:55:13.288Z,25.93
2019-05-26T06:57:42.095Z,24.33
2019-05-26T07:00:11.527Z,32.93
2019-05-26T07:02:40.286Z,29.37
2019-05-26T07:05:10.686Z,38.03
2019-05-26T07:07:39.428Z,27.30
2019-05-26T07:10:08.846Z,25.67
2019-05-26T07:12:38.332Z,22.47
2019-05-26T07:15:08.245Z,27.10
2019-05-26T07:17:37.071Z,43.77
2019-05-26T07:20:07.784Z,27.03
2019-05-26T07:22:36.812Z,27.50
2019-05-26T07:25:07.861Z,29.87
2019-05-26T07:27:36.675Z,30.80
2019-05-26T07:30:07.374Z,25.07
2019-05-26T07:32:36.324Z,29.00
2019-05-26T07:35:06.564Z,28.80
2019-05-26T07:37:35.523Z,24.63
2019-05-26T07:40:05.060Z,26.20
2019-05-26T07:42:34.145Z,23.40
2019-05-26T07:45:02.889Z,23.30
2019-05-26T07:47:31.704Z,26.93
2019-05-26T07:50:00.639Z,20.73
2019-05-26T07:52:29.446Z,23.00
2019-05-26T07:54:58.513Z,22.37
2019-05-26T07:57:27.299Z,22.20
2019-05-26T07:59:56.102Z,19.00
2019-05-26T08:02:27.849Z,19.20
2019-05-26T08:04:56.676Z,18.07
2019-05-26T08:07:25.471Z,18.20
2019-05-26T08:09:54.259Z,19.83
2019-05-26T08:12:26.875Z,16.70
2019-05-26T08:14:53.684Z,18.97
2019-05-26T08:17:22.593Z,17.03
2019-05-26T08:19:51.588Z,15.47
2019-05-26T08:22:25.061Z,13.87
2019-05-26T08:24:57.118Z,14.57
2019-05-26T08:27:25.923Z,13.03
2019-05-26T08:29:57.643Z,18.20
2019-05-26T08:32:26.458Z,12.13
2019-05-26T08:34:55.403Z,13.30
2019-05-26T08:37:24.239Z,11.83
2019-05-26T08:39:53.027Z,10.30
2019-05-26T08:42:27.281Z,11.23
2019-05-26T08:44:52.390Z,10.97
2019-05-26T08:47:21.221Z,11.20
2019-05-26T08:49:50.016Z,10.37
2019-05-26T08:52:18.877Z,13.13
2019-05-26T08:54:48.000Z,10.63
2019-05-26T08:57:16.752Z,10.37
2019-05-26T08:59:45.785Z,9.37
2019-05-26T09:02:14.716Z,13.13
2019-05-26T09:04:43.503Z,9.13
2019-05-26T09:07:12.331Z,7.93
2019-05-26T09:09:41.104Z,10.93
2019-05-26T09:12:09.969Z,7.83
2019-05-26T09:14:38.706Z,11.93
2019-05-26T09:17:07.495Z,6.50
2019-05-26T09:19:36.296Z,6.20
2019-05-26T09:22:05.151Z,6.00
2019-05-26T09:24:33.935Z,7.13
2019-05-26T09:27:03.391Z,5.90
2019-05-26T09:29:32.073Z,13.43
2019-05-26T09:32:00.992Z,5.73
2019-05-26T09:34:29.688Z,5.80
2019-05-26T09:36:58.480Z,5.90
2019-05-26T09:39:27.367Z,5.20
2019-05-26T09:41:56.128Z,7.40
2019-05-26T09:44:24.920Z,6.47
2019-05-26T09:46:53.709Z,5.37
2019-05-26T09:49:22.562Z,6.23
2019-05-26T09:51:51.700Z,6.70
2019-05-26T09:54:20.471Z,6.10
2019-05-26T09:56:49.595Z,11.47
2019-05-26T09:59:18.474Z,5.50
2019-05-26T10:01:47.378Z,8.40
2019-05-26T10:04:16.138Z,9.63
2019-05-26T10:06:44.973Z,8.60
2019-05-26T10:09:13.826Z,5.40
2019-05-26T10:11:42.639Z,7.60
2019-05-26T10:14:11.424Z,6.07
2019-05-26T10:16:40.239Z,5.13
2019-05-26T10:19:09.086Z,5.07
2019-05-26T10:21:37.941Z,5.83
2019-05-26T10:24:06.732Z,9.47
2019-05-26T10:26:35.543Z,4.97
2019-05-26T10:29:04.534Z,4.93
2019-05-26T10:31:33.349Z,4.63
2019-05-26T10:34:02.212Z,5.60
2019-05-26T10:36:31.346Z,4.13
2019-05-26T10:39:00.103Z,4.13
2019-05-26T10:41:28.972Z,3.50
2019-05-26T10:43:57.839Z,3.27
2019-05-26T10:46:26.607Z,2.90
2019-05-26T10:49:07.297Z,2.63
2019-05-26T10:51:36.152Z,8.73
2019-05-26T10:54:05.150Z,2.10
2019-05-26T10:56:33.906Z,3.30
2019-05-26T10:59:02.777Z,2.97
2019-05-26T11:01:31.530Z,2.80
2019-05-26T11:04:00.370Z,6.40
2019-05-26T11:06:29.187Z,2.70
2019-05-26T11:08:58.966Z,2.87
2019-05-26T11:11:27.754Z,3.30
2019-05-26T11:14:02.706Z,3.30
2019-05-26T11:16:27.095Z,3.30
2019-05-26T11:18:55.944Z,3.50
2019-05-26T11:21:24.774Z,3.70
2019-05-26T11:23:54.304Z,3.70
2019-05-26T11:26:23.215Z,4.00
2019-05-26T11:28:52.040Z,5.47
2019-05-26T11:31:20.934Z,5.13
2019-05-26T11:33:50.059Z,3.53
2019-05-26T11:36:20.430Z,4.20
2019-05-26T11:38:49.785Z,4.50
2019-05-26T11:41:18.658Z,3.40
2019-05-26T11:43:47.489Z,10.73
2019-05-26T11:46:17.059Z,3.27
2019-05-26T11:48:47.562Z,4.43
2019-05-26T11:51:16.525Z,5.20
2019-05-26T11:53:45.268Z,4.97
2019-05-26T11:56:14.041Z,4.03
2019-05-26T11:58:42.849Z,4.77
2019-05-26T12:01:11.709Z,4.17
2019-05-26T12:03:40.505Z,4.10
2019-05-26T12:06:09.333Z,4.30
2019-05-26T12:08:38.163Z,3.73
2019-05-26T12:11:06.992Z,4.10
2019-05-26T12:13:36.776Z,7.00
2019-05-26T12:16:05.855Z,2.70
2019-05-26T12:18:34.754Z,3.80
2019-05-26T12:21:03.660Z,3.60
2019-05-26T12:23:32.394Z,2.80
2019-05-26T12:26:01.227Z,2.23
2019-05-26T12:28:30.090Z,2.60
2019-05-26T12:30:59.144Z,3.60
2019-05-26T12:33:28.701Z,3.00
2019-05-26T12:35:57.501Z,3.10
2019-05-26T12:38:26.340Z,4.60
2019-05-26T12:40:55.241Z,2.30
2019-05-26T12:43:24.013Z,3.00
2019-05-26T12:45:53.692Z,1.73
2019-05-26T12:48:22.474Z,1.70
2019-05-26T12:50:51.289Z,3.20
2019-05-26T12:53:20.790Z,3.00
2019-05-26T12:55:49.597Z,1.67
2019-05-26T12:58:18.486Z,2.00
2019-05-26T13:00:54.791Z,3.47
2019-05-26T13:03:22.086Z,3.17
2019-05-26T13:05:50.846Z,2.47
2019-05-26T13:08:19.634Z,4.73
2019-05-26T13:10:48.494Z,5.60
2019-05-26T13:13:17.972Z,5.57
2019-05-26T13:15:48.191Z,2.40
2019-05-26T13:18:18.584Z,2.33
2019-05-26T13:20:47.338Z,1.83
2019-05-26T13:23:16.201Z,2.50
2019-05-26T13:25:45.037Z,1.87
2019-05-26T13:28:13.852Z,3.10
2019-05-26T13:30:42.830Z,2.80
2019-05-26T13:33:12.222Z,3.80
2019-05-26T13:35:41.042Z,1.83
2019-05-26T13:38:09.923Z,4.60
2019-05-26T13:40:38.753Z,2.90
2019-05-26T13:43:07.593Z,6.77
2019-05-26T13:45:36.476Z,4.03
2019-05-26T13:48:05.572Z,5.40
2019-05-26T13:50:34.450Z,3.03
2019-05-26T13:53:03.336Z,4.17
2019-05-26T13:55:32.982Z,2.70
2019-05-26T13:58:01.809Z,3.07
2019-05-26T14:00:30.685Z,6.60
2019-05-26T14:02:59.489Z,3.17
2019-05-26T14:05:28.395Z,4.00
2019-05-26T14:07:57.243Z,10.50
2019-05-26T14:10:28.865Z,3.77
2019-05-26T14:12:57.940Z,3.47
2019-05-26T14:15:37.386Z,3.70
2019-05-26T14:17:58.312Z,3.13
2019-05-26T14:20:29.902Z,3.47
2019-05-26T14:22:58.599Z,2.87
2019-05-26T14:25:27.797Z,2.80
2019-05-26T14:27:56.665Z,3.20
2019-05-26T14:30:25.576Z,5.77
2019-05-26T14:32:54.490Z,4.40
2019-05-26T14:35:23.394Z,3.67
2019-05-26T14:37:52.204Z,5.30
2019-05-26T14:40:21.340Z,9.73
2019-05-26T14:42:50.184Z,6.27
2019-05-26T14:45:20.615Z,5.07
2019-05-26T14:47:49.412Z,3.70
2019-05-26T14:50:20.287Z,10.43
2019-05-26T14:52:49.126Z,4.87
2019-05-26T14:55:18.231Z,6.13
2019-05-26T14:57:47.140Z,3.40
2019-05-26T15:00:17.692Z,2.97
2019-05-26T15:02:46.485Z,3.13
2019-05-26T15:05:16.167Z,3.10
2019-05-26T15:07:46.369Z,3.90
2019-05-26T15:10:15.926Z,3.30
2019-05-26T15:12:44.738Z,3.13
2019-05-26T15:15:14.981Z,3.70
2019-05-26T15:17:43.796Z,4.13
2019-05-26T15:20:14.357Z,3.90
2019-05-26T15:22:43.093Z,5.37
2019-05-26T15:25:13.015Z,3.63
2019-05-26T15:27:41.956Z,3.50
2019-05-26T15:30:12.341Z,4.57
2019-05-26T15:32:41.141Z,4.30
2019-05-26T15:35:11.402Z,3.50
2019-05-26T15:37:40.347Z,3.87
2019-05-26T15:40:09.653Z,11.13
2019-05-26T15:42:38.482Z,3.63
2019-05-26T15:45:08.293Z,12.40
2019-05-26T15:47:37.137Z,3.87
2019-05-26T15:50:07.643Z,3.20
2019-05-26T15:52:37.911Z,14.13
2019-05-26T15:55:07.612Z,13.40
2019-05-26T15:57:36.509Z,12.70
2019-05-26T16:00:08.319Z,15.90
2019-05-26T16:02:37.115Z,8.20
2019-05-26T16:05:06.764Z,7.07
2019-05-26T16:07:36.273Z,8.93
2019-05-26T16:10:07.960Z,11.33
2019-05-26T16:12:37.995Z,5.23
2019-05-26T16:15:08.971Z,4.33
2019-05-26T16:17:38.843Z,4.40
2019-05-26T16:20:10.202Z,6.80
2019-05-26T16:22:39.052Z,6.60
2019-05-26T16:25:08.513Z,4.60
2019-05-26T16:27:37.789Z,3.90
2019-05-26T16:30:08.564Z,5.20
2019-05-26T16:32:38.805Z,4.47
2019-05-26T16:35:08.482Z,9.37
2019-05-26T16:37:37.281Z,4.43
2019-05-26T16:40:06.654Z,4.60
2019-05-26T16:42:35.515Z,4.83
2019-05-26T16:45:05.814Z,7.97
2019-05-26T16:47:34.744Z,6.80
2019-05-26T16:50:04.881Z,4.43
2019-05-26T16:52:33.687Z,5.07
2019-05-26T16:55:02.571Z,3.97
2019-05-26T16:57:32.773Z,4.20
2019-05-26T17:00:01.712Z,5.50
2019-05-26T17:02:30.527Z,4.33
2019-05-26T17:04:59.690Z,4.70
2019-05-26T17:07:28.498Z,4.30
2019-05-26T17:09:57.291Z,4.30
2019-05-26T17:12:26.056Z,8.43
2019-05-26T17:14:54.800Z,8.63
2019-05-26T17:17:23.577Z,5.53
2019-05-26T17:19:53.257Z,4.70
2019-05-26T17:22:22.168Z,7.43
2019-05-26T17:24:51.072Z,4.33
2019-05-26T17:27:19.916Z,4.67
2019-05-26T17:29:48.680Z,4.90
2019-05-26T17:32:17.544Z,4.60
2019-05-26T17:34:46.306Z,3.70
2019-05-26T17:37:15.097Z,4.60
2019-05-26T17:39:43.992Z,8.40
2019-05-26T17:42:12.811Z,6.57
2019-05-26T17:44:41.504Z,4.60
2019-05-26T17:47:10.637Z,4.27
2019-05-26T17:49:39.773Z,4.57
2019-05-26T17:52:09.277Z,4.03
2019-05-26T17:54:38.130Z,5.83
2019-05-26T17:57:08.042Z,6.20
2019-05-26T17:59:36.948Z,4.33
2019-05-26T18:02:06.442Z,5.73
2019-05-26T18:04:35.372Z,4.50
2019-05-26T18:07:04.670Z,7.90
2019-05-26T18:09:43.555Z,5.30
2019-05-26T18:12:04.462Z,6.30
2019-05-26T18:14:34.664Z,5.77
2019-05-26T18:17:03.524Z,4.60
2019-05-26T18:19:32.349Z,5.37
2019-05-26T18:22:01.216Z,7.50
2019-05-26T18:24:30.099Z,5.97
2019-05-26T18:26:58.862Z,4.90
2019-05-26T18:29:27.684Z,5.03
2019-05-26T18:31:57.901Z,4.83
2019-05-26T18:34:27.431Z,4.83
2019-05-26T18:36:56.322Z,6.60
2019-05-26T18:39:25.167Z,11.13
2019-05-26T18:41:54.068Z,4.40
2019-05-26T18:44:23.006Z,4.83
2019-05-26T18:46:53.708Z,4.97
2019-05-26T18:49:22.411Z,4.00
2019-05-26T18:51:51.316Z,4.53
2019-05-26T18:54:20.180Z,7.90
2019-05-26T18:56:49.005Z,5.17
2019-05-26T18:59:18.108Z,4.87
2019-05-26T19:01:46.969Z,4.47
2019-05-26T19:04:15.759Z,4.13
2019-05-26T19:06:45.128Z,6.53
2019-05-26T19:09:13.961Z,6.43
2019-05-26T19:11:42.879Z,4.30
2019-05-26T19:14:11.688Z,5.73
2019-05-26T19:16:40.597Z,4.00
2019-05-26T19:19:10.831Z,5.00
2019-05-26T19:21:39.848Z,6.03
2019-05-26T19:24:09.142Z,4.90
2019-05-26T19:26:39.473Z,4.90
2019-05-26T19:29:08.351Z,4.43
2019-05-26T19:31:37.292Z,4.77
2019-05-26T19:34:06.752Z,4.43
2019-05-26T19:36:35.556Z,6.53
2019-05-26T19:39:06.412Z,5.20
2019-05-26T19:41:38.989Z,5.60
2019-05-26T19:44:06.096Z,6.23
2019-05-26T19:46:36.357Z,7.03
2019-05-26T19:49:07.679Z,5.93
2019-05-26T19:51:37.390Z,5.23
2019-05-26T19:54:06.286Z,5.10
2019-05-26T19:56:35.063Z,5.17
2019-05-26T19:59:04.202Z,5.90
2019-05-26T20:01:34.568Z,4.70
2019-05-26T20:04:04.774Z,5.60
2019-05-26T20:06:33.946Z,5.17
2019-05-26T20:09:02.819Z,6.10
2019-05-26T20:11:32.128Z,5.20
2019-05-26T20:14:00.974Z,6.00
2019-05-26T20:16:30.809Z,6.00
2019-05-26T20:19:00.237Z,6.93
2019-05-26T20:21:30.476Z,12.60
2019-05-26T20:23:59.283Z,6.73
2019-05-26T20:26:29.545Z,9.60
2019-05-26T20:28:58.381Z,6.20
2019-05-26T20:31:27.313Z,10.30
2019-05-26T20:33:56.175Z,9.00
2019-05-26T20:36:25.610Z,6.43
2019-05-26T20:38:54.399Z,8.57
2019-05-26T20:41:24.478Z,7.37
2019-05-26T20:43:53.323Z,6.70
2019-05-26T20:46:22.120Z,7.33
2019-05-26T20:48:50.897Z,6.33
2019-05-26T20:51:24.001Z,6.43
2019-05-26T20:53:52.863Z,8.57
2019-05-26T20:56:21.672Z,11.07
2019-05-26T20:58:50.508Z,7.27
2019-05-26T21:01:19.232Z,7.67
2019-05-26T21:03:48.021Z,8.20
2019-05-26T21:06:18.470Z,8.00
2019-05-26T21:08:47.810Z,10.73
2019-05-26T21:11:16.684Z,8.13
2019-05-26T21:13:45.528Z,7.50
2019-05-26T21:16:14.299Z,7.50
2019-05-26T21:18:43.197Z,7.23
2019-05-26T21:21:12.094Z,9.50
2019-05-26T21:23:41.565Z,5.90
2019-05-26T21:26:10.329Z,6.67
2019-05-26T21:28:39.134Z,6.90
2019-05-26T21:31:08.055Z,8.27
2019-05-26T21:33:36.981Z,7.13
2019-05-26T21:36:05.732Z,7.70
2019-05-26T21:38:34.421Z,6.43
2019-05-26T21:41:03.349Z,6.90
2019-05-26T21:43:32.134Z,6.67
2019-05-26T21:46:01.091Z,6.87
2019-05-26T21:48:29.919Z,5.33
2019-05-26T21:50:58.823Z,5.30
2019-05-26T21:53:27.638Z,5.37
2019-05-26T21:55:56.544Z,6.03
2019-05-26T21:58:25.729Z,5.00
2019-05-26T22:00:54.920Z,8.03
2019-05-26T22:03:25.393Z,8.03
2019-05-26T22:05:54.169Z,8.17
2019-05-26T22:08:22.947Z,4.73
2019-05-26T22:10:51.815Z,4.23
2019-05-26T22:13:20.510Z,4.90
2019-05-26T22:15:50.865Z,4.00
2019-05-26T22:18:19.627Z,6.63
2019-05-26T22:20:48.273Z,4.63
2019-05-26T22:23:17.035Z,4.83
2019-05-26T22:25:45.827Z,5.37
2019-05-26T22:28:14.632Z,6.40
2019-05-26T22:30:43.991Z,6.00
2019-05-26T22:33:12.818Z,5.70
2019-05-26T22:35:41.635Z,6.23
2019-05-26T22:38:10.545Z,7.57
2019-05-26T22:40:39.314Z,5.93
2019-05-26T22:43:08.140Z,6.63
2019-05-26T22:45:36.933Z,5.50
2019-05-26T22:48:05.724Z,6.00
2019-05-26T22:50:34.608Z,7.87
2019-05-26T22:53:03.437Z,8.87
2019-05-26T22:55:32.226Z,6.40
2019-05-26T22:58:00.995Z,6.57
2019-05-26T23:00:29.828Z,7.23
2019-05-26T23:02:58.698Z,12.73
2019-05-26T23:05:27.865Z,9.13
2019-05-26T23:07:56.695Z,6.17
2019-05-26T23:10:25.707Z,6.60
2019-05-26T23:12:54.719Z,9.93
2019-05-26T23:15:24.367Z,7.30
2019-05-26T23:17:53.278Z,5.40
2019-05-26T23:20:22.072Z,7.50
2019-05-26T23:22:51.719Z,6.33
2019-05-26T23:25:20.853Z,5.10
2019-05-26T23:27:49.906Z,6.07
2019-05-26T23:30:19.213Z,11.10
2019-05-26T23:32:48.050Z,4.77
2019-05-26T23:35:16.941Z,4.53
2019-05-26T23:37:45.621Z,4.97
2019-05-26T23:40:15.203Z,5.97
2019-05-26T23:42:44.009Z,6.30
2019-05-26T23:45:13.242Z,4.70
2019-05-26T23:47:42.019Z,5.30
2019-05-26T23:50:11.228Z,5.07
2019-05-26T23:52:40.103Z,4.73
2019-05-26T23:55:09.684Z,5.00
2019-05-26T23:57:38.503Z,5.17
